sensor_id;sensor_type;location;lat;lon;timestamp;P1;durP1;ratioP1;P2;durP2;ratioP2
6163;SDS011;3114;48.362;10.994;2023-04-02T00:04:03;1.17;;;0.20;;
6163;SDS011;3114;48.362;10.994;2023-04-02T00:06:53;0.32;;;0.20;;
6163;SDS011;3114;48.362;10.994;2023-04-02T00:09:31;0.32;;;0.20;;
6163;SDS011;3114;48.362;10.994;2023-04-02T00:12:13;1.10;;;0.13;;
6163;SDS011;3114;48.362;10.994;2023-04-02T00:14:47;0.70;;;0.53;;
6163;SDS011;3114;48.362;10.994;2023-04-02T00:17:16;0.28;;;0.28;;
6163;SDS011;3114;48.362;10.994;2023-04-02T00:19:45;0.87;;;0.20;;
6163;SDS011;3114;48.362;10.994;2023-04-02T00:22:18;1.60;;;0.30;;
6163;SDS011;3114;48.362;10.994;2023-04-02T00:24:48;0.52;;;0.20;;
6163;SDS011;3114;48.362;10.994;2023-04-02T00:27:16;0.30;;;0.20;;
6163;SDS011;3114;48.362;10.994;2023-04-02T00:29:46;0.20;;;0.20;;
6163;SDS011;3114;48.362;10.994;2023-04-02T00:32:16;0.83;;;0.30;;
6163;SDS011;3114;48.362;10.994;2023-04-02T00:34:46;0.20;;;0.10;;
6163;SDS011;3114;48.362;10.994;2023-04-02T00:37:14;1.35;;;0.28;;
6163;SDS011;3114;48.362;10.994;2023-04-02T00:39:49;0.73;;;0.30;;
6163;SDS011;3114;48.362;10.994;2023-04-02T00:42:21;0.10;;;0.10;;
6163;SDS011;3114;48.362;10.994;2023-04-02T00:44:49;0.20;;;0.20;;
6163;SDS011;3114;48.362;10.994;2023-04-02T00:47:19;0.38;;;0.25;;
6163;SDS011;3114;48.362;10.994;2023-04-02T00:49:49;0.45;;;0.28;;
6163;SDS011;3114;48.362;10.994;2023-04-02T00:52:23;1.23;;;0.30;;
6163;SDS011;3114;48.362;10.994;2023-04-02T00:54:55;0.53;;;0.30;;
6163;SDS011;3114;48.362;10.994;2023-04-02T00:57:28;3.25;;;0.10;;
6163;SDS011;3114;48.362;10.994;2023-04-02T00:59:56;0.55;;;0.30;;
6163;SDS011;3114;48.362;10.994;2023-04-02T01:02:28;0.90;;;0.40;;
6163;SDS011;3114;48.362;10.994;2023-04-02T01:04:57;0.30;;;0.30;;
6163;SDS011;3114;48.362;10.994;2023-04-02T01:07:38;0.20;;;0.20;;
6163;SDS011;3114;48.362;10.994;2023-04-02T01:10:16;0.13;;;0.13;;
6163;SDS011;3114;48.362;10.994;2023-04-02T01:12:57;1.00;;;0.30;;
6163;SDS011;3114;48.362;10.994;2023-04-02T01:15:32;0.40;;;0.30;;
6163;SDS011;3114;48.362;10.994;2023-04-02T01:18:17;0.60;;;0.20;;
6163;SDS011;3114;48.362;10.994;2023-04-02T01:21:06;0.47;;;0.13;;
6163;SDS011;3114;48.362;10.994;2023-04-02T01:23:55;0.30;;;0.30;;
6163;SDS011;3114;48.362;10.994;2023-04-02T01:26:30;1.08;;;0.30;;
6163;SDS011;3114;48.362;10.994;2023-04-02T01:29:07;0.40;;;0.25;;
6163;SDS011;3114;48.362;10.994;2023-04-02T01:31:38;0.25;;;0.25;;
6163;SDS011;3114;48.362;10.994;2023-04-02T01:34:08;0.30;;;0.30;;
6163;SDS011;3114;48.362;10.994;2023-04-02T01:36:38;0.30;;;0.30;;
6163;SDS011;3114;48.362;10.994;2023-04-02T01:39:16;1.48;;;0.45;;
6163;SDS011;3114;48.362;10.994;2023-04-02T01:41:51;0.28;;;0.20;;
6163;SDS011;3114;48.362;10.994;2023-04-02T01:44:26;2.65;;;0.50;;
6163;SDS011;3114;48.362;10.994;2023-04-02T01:46:56;0.10;;;0.10;;
6163;SDS011;3114;48.362;10.994;2023-04-02T01:49:27;1.40;;;0.20;;
6163;SDS011;3114;48.362;10.994;2023-04-02T01:51:55;0.50;;;0.37;;
6163;SDS011;3114;48.362;10.994;2023-04-02T01:54:22;1.58;;;0.40;;
6163;SDS011;3114;48.362;10.994;2023-04-02T01:56:52;1.38;;;0.63;;
6163;SDS011;3114;48.362;10.994;2023-04-02T01:59:21;0.67;;;0.50;;
6163;SDS011;3114;48.362;10.994;2023-04-02T02:01:50;0.70;;;0.28;;
6163;SDS011;3114;48.362;10.994;2023-04-02T02:04:22;0.70;;;0.30;;
6163;SDS011;3114;48.362;10.994;2023-04-02T02:06:49;0.70;;;0.27;;
6163;SDS011;3114;48.362;10.994;2023-04-02T02:09:16;0.20;;;0.20;;
6163;SDS011;3114;48.362;10.994;2023-04-02T02:11:48;1.27;;;0.20;;
6163;SDS011;3114;48.362;10.994;2023-04-02T02:14:16;1.23;;;0.30;;
6163;SDS011;3114;48.362;10.994;2023-04-02T02:16:46;0.70;;;0.37;;
6163;SDS011;3114;48.362;10.994;2023-04-02T02:19:18;0.40;;;0.20;;
6163;SDS011;3114;48.362;10.994;2023-04-02T02:21:50;0.67;;;0.20;;
6163;SDS011;3114;48.362;10.994;2023-04-02T02:24:19;0.87;;;0.40;;
6163;SDS011;3114;48.362;10.994;2023-04-02T02:26:50;2.00;;;0.40;;
6163;SDS011;3114;48.362;10.994;2023-04-02T02:29:27;0.57;;;0.20;;
6163;SDS011;3114;48.362;10.994;2023-04-02T02:31:56;0.43;;;0.33;;
6163;SDS011;3114;48.362;10.994;2023-04-02T02:34:28;1.07;;;0.40;;
6163;SDS011;3114;48.362;10.994;2023-04-02T02:37:01;0.90;;;0.20;;
6163;SDS011;3114;48.362;10.994;2023-04-02T02:39:32;0.37;;;0.20;;
6163;SDS011;3114;48.362;10.994;2023-04-02T02:42:03;0.20;;;0.20;;
6163;SDS011;3114;48.362;10.994;2023-04-02T02:44:35;0.10;;;0.10;;
6163;SDS011;3114;48.362;10.994;2023-04-02T02:47:08;0.33;;;0.33;;
6163;SDS011;3114;48.362;10.994;2023-04-02T02:49:41;1.70;;;0.50;;
6163;SDS011;3114;48.362;10.994;2023-04-02T02:52:14;1.07;;;0.40;;
6163;SDS011;3114;48.362;10.994;2023-04-02T02:54:43;0.57;;;0.40;;
6163;SDS011;3114;48.362;10.994;2023-04-02T02:57:16;0.30;;;0.30;;
6163;SDS011;3114;48.362;10.994;2023-04-02T02:59:47;0.57;;;0.37;;
6163;SDS011;3114;48.362;10.994;2023-04-02T03:02:15;0.50;;;0.40;;
6163;SDS011;3114;48.362;10.994;2023-04-02T03:04:46;1.43;;;0.30;;
6163;SDS011;3114;48.362;10.994;2023-04-02T03:07:17;0.30;;;0.30;;
6163;SDS011;3114;48.362;10.994;2023-04-02T03:09:48;0.60;;;0.30;;
6163;SDS011;3114;48.362;10.994;2023-04-02T03:12:33;0.40;;;0.23;;
6163;SDS011;3114;48.362;10.994;2023-04-02T03:15:06;2.73;;;0.47;;
6163;SDS011;3114;48.362;10.994;2023-04-02T03:17:40;0.63;;;0.50;;
6163;SDS011;3114;48.362;10.994;2023-04-02T03:20:13;0.57;;;0.40;;
6163;SDS011;3114;48.362;10.994;2023-04-02T03:22:45;0.47;;;0.40;;
6163;SDS011;3114;48.362;10.994;2023-04-02T03:25:20;2.80;;;0.50;;
6163;SDS011;3114;48.362;10.994;2023-04-02T03:27:53;0.70;;;0.20;;
6163;SDS011;3114;48.362;10.994;2023-04-02T03:30:28;0.27;;;0.27;;
6163;SDS011;3114;48.362;10.994;2023-04-02T03:33:00;0.43;;;0.40;;
6163;SDS011;3114;48.362;10.994;2023-04-02T03:35:34;1.07;;;0.23;;
6163;SDS011;3114;48.362;10.994;2023-04-02T03:38:06;1.37;;;0.40;;
6163;SDS011;3114;48.362;10.994;2023-04-02T03:40:40;1.17;;;0.50;;
6163;SDS011;3114;48.362;10.994;2023-04-02T03:43:12;2.37;;;0.50;;
6163;SDS011;3114;48.362;10.994;2023-04-02T03:45:44;0.60;;;0.33;;
6163;SDS011;3114;48.362;10.994;2023-04-02T03:48:17;0.50;;;0.40;;
6163;SDS011;3114;48.362;10.994;2023-04-02T03:50:53;0.33;;;0.30;;
6163;SDS011;3114;48.362;10.994;2023-04-02T03:53:24;1.40;;;0.70;;
6163;SDS011;3114;48.362;10.994;2023-04-02T03:55:53;1.47;;;0.47;;
6163;SDS011;3114;48.362;10.994;2023-04-02T03:58:22;1.07;;;0.63;;
6163;SDS011;3114;48.362;10.994;2023-04-02T04:00:54;1.13;;;0.67;;
6163;SDS011;3114;48.362;10.994;2023-04-02T04:03:25;0.93;;;0.47;;
6163;SDS011;3114;48.362;10.994;2023-04-02T04:05:58;0.77;;;0.50;;
6163;SDS011;3114;48.362;10.994;2023-04-02T04:08:29;0.87;;;0.40;;
6163;SDS011;3114;48.362;10.994;2023-04-02T04:11:02;1.30;;;0.50;;
6163;SDS011;3114;48.362;10.994;2023-04-02T04:13:35;1.70;;;0.43;;
6163;SDS011;3114;48.362;10.994;2023-04-02T04:16:10;1.30;;;0.40;;
6163;SDS011;3114;48.362;10.994;2023-04-02T04:18:42;4.03;;;0.60;;
6163;SDS011;3114;48.362;10.994;2023-04-02T04:21:18;1.47;;;0.50;;
6163;SDS011;3114;48.362;10.994;2023-04-02T04:23:54;0.82;;;0.40;;
6163;SDS011;3114;48.362;10.994;2023-04-02T04:26:23;0.80;;;0.30;;
6163;SDS011;3114;48.362;10.994;2023-04-02T04:28:57;1.10;;;0.43;;
6163;SDS011;3114;48.362;10.994;2023-04-02T04:31:31;0.23;;;0.23;;
6163;SDS011;3114;48.362;10.994;2023-04-02T04:34:04;1.23;;;0.40;;
6163;SDS011;3114;48.362;10.994;2023-04-02T04:36:39;0.30;;;0.30;;
6163;SDS011;3114;48.362;10.994;2023-04-02T04:39:12;2.00;;;0.40;;
6163;SDS011;3114;48.362;10.994;2023-04-02T04:41:42;0.53;;;0.20;;
6163;SDS011;3114;48.362;10.994;2023-04-02T04:44:13;0.20;;;0.20;;
6163;SDS011;3114;48.362;10.994;2023-04-02T04:46:44;0.50;;;0.30;;
6163;SDS011;3114;48.362;10.994;2023-04-02T04:49:16;1.07;;;0.40;;
6163;SDS011;3114;48.362;10.994;2023-04-02T04:51:47;1.50;;;0.40;;
6163;SDS011;3114;48.362;10.994;2023-04-02T04:54:18;0.47;;;0.30;;
6163;SDS011;3114;48.362;10.994;2023-04-02T04:56:46;0.27;;;0.20;;
6163;SDS011;3114;48.362;10.994;2023-04-02T04:59:16;1.27;;;0.50;;
6163;SDS011;3114;48.362;10.994;2023-04-02T05:01:48;0.43;;;0.33;;
6163;SDS011;3114;48.362;10.994;2023-04-02T05:04:20;0.60;;;0.40;;
6163;SDS011;3114;48.362;10.994;2023-04-02T05:06:53;0.60;;;0.27;;
6163;SDS011;3114;48.362;10.994;2023-04-02T05:09:23;1.53;;;0.50;;
6163;SDS011;3114;48.362;10.994;2023-04-02T05:11:58;1.90;;;0.70;;
6163;SDS011;3114;48.362;10.994;2023-04-02T05:14:31;0.20;;;0.20;;
6163;SDS011;3114;48.362;10.994;2023-04-02T05:17:03;1.97;;;0.50;;
6163;SDS011;3114;48.362;10.994;2023-04-02T05:19:33;1.33;;;0.30;;
6163;SDS011;3114;48.362;10.994;2023-04-02T05:22:12;3.40;;;0.40;;
6163;SDS011;3114;48.362;10.994;2023-04-02T05:24:47;0.82;;;0.30;;
6163;SDS011;3114;48.362;10.994;2023-04-02T05:27:24;0.57;;;0.53;;
6163;SDS011;3114;48.362;10.994;2023-04-02T05:29:58;0.43;;;0.30;;
6163;SDS011;3114;48.362;10.994;2023-04-02T05:32:30;0.65;;;0.40;;
6163;SDS011;3114;48.362;10.994;2023-04-02T05:35:01;0.40;;;0.40;;
6163;SDS011;3114;48.362;10.994;2023-04-02T05:37:32;2.53;;;0.73;;
6163;SDS011;3114;48.362;10.994;2023-04-02T05:40:01;1.10;;;0.47;;
6163;SDS011;3114;48.362;10.994;2023-04-02T05:42:37;3.53;;;0.60;;
6163;SDS011;3114;48.362;10.994;2023-04-02T05:45:13;1.50;;;0.60;;
6163;SDS011;3114;48.362;10.994;2023-04-02T05:47:50;0.55;;;0.40;;
6163;SDS011;3114;48.362;10.994;2023-04-02T05:53:16;0.90;;;0.47;;
6163;SDS011;3114;48.362;10.994;2023-04-02T05:55:50;1.30;;;0.50;;
6163;SDS011;3114;48.362;10.994;2023-04-02T05:58:21;0.65;;;0.30;;
6163;SDS011;3114;48.362;10.994;2023-04-02T06:01:01;1.00;;;0.30;;
6163;SDS011;3114;48.362;10.994;2023-04-02T06:03:37;1.20;;;0.80;;
6163;SDS011;3114;48.362;10.994;2023-04-02T06:06:12;1.75;;;0.40;;
6163;SDS011;3114;48.362;10.994;2023-04-02T06:08:46;2.63;;;0.73;;
6163;SDS011;3114;48.362;10.994;2023-04-02T06:11:17;1.23;;;0.67;;
6163;SDS011;3114;48.362;10.994;2023-04-02T06:13:49;1.73;;;0.70;;
6163;SDS011;3114;48.362;10.994;2023-04-02T06:16:15;0.68;;;0.50;;
6163;SDS011;3114;48.362;10.994;2023-04-02T06:18:43;1.40;;;0.53;;
6163;SDS011;3114;48.362;10.994;2023-04-02T06:21:10;0.97;;;0.53;;
6163;SDS011;3114;48.362;10.994;2023-04-02T06:23:41;4.30;;;1.67;;
6163;SDS011;3114;48.362;10.994;2023-04-02T06:26:13;0.83;;;0.63;;
6163;SDS011;3114;48.362;10.994;2023-04-02T06:28:45;0.87;;;0.60;;
6163;SDS011;3114;48.362;10.994;2023-04-02T06:31:17;1.83;;;0.90;;
6163;SDS011;3114;48.362;10.994;2023-04-02T06:33:50;1.02;;;0.80;;
6163;SDS011;3114;48.362;10.994;2023-04-02T06:36:19;0.73;;;0.63;;
6163;SDS011;3114;48.362;10.994;2023-04-02T06:38:46;0.50;;;0.50;;
6163;SDS011;3114;48.362;10.994;2023-04-02T06:41:16;0.70;;;0.60;;
6163;SDS011;3114;48.362;10.994;2023-04-02T06:43:46;1.13;;;0.60;;
6163;SDS011;3114;48.362;10.994;2023-04-02T06:46:22;1.50;;;0.60;;
6163;SDS011;3114;48.362;10.994;2023-04-02T06:48:58;0.47;;;0.47;;
6163;SDS011;3114;48.362;10.994;2023-04-02T06:51:31;0.50;;;0.40;;
6163;SDS011;3114;48.362;10.994;2023-04-02T06:54:01;0.90;;;0.50;;
6163;SDS011;3114;48.362;10.994;2023-04-02T06:56:37;1.40;;;0.90;;
6163;SDS011;3114;48.362;10.994;2023-04-02T06:59:08;1.27;;;0.70;;
6163;SDS011;3114;48.362;10.994;2023-04-02T07:01:37;1.27;;;0.50;;
6163;SDS011;3114;48.362;10.994;2023-04-02T07:04:10;1.52;;;0.70;;
6163;SDS011;3114;48.362;10.994;2023-04-02T07:06:37;0.88;;;0.55;;
6163;SDS011;3114;48.362;10.994;2023-04-02T07:09:04;0.50;;;0.50;;
6163;SDS011;3114;48.362;10.994;2023-04-02T07:11:32;1.35;;;0.60;;
6163;SDS011;3114;48.362;10.994;2023-04-02T07:14:01;0.57;;;0.57;;
6163;SDS011;3114;48.362;10.994;2023-04-02T07:16:29;0.70;;;0.47;;
6163;SDS011;3114;48.362;10.994;2023-04-02T07:18:57;1.02;;;0.60;;
6163;SDS011;3114;48.362;10.994;2023-04-02T07:21:25;0.82;;;0.45;;
6163;SDS011;3114;48.362;10.994;2023-04-02T07:23:55;2.03;;;0.50;;
6163;SDS011;3114;48.362;10.994;2023-04-02T07:26:25;0.45;;;0.45;;
6163;SDS011;3114;48.362;10.994;2023-04-02T07:28:53;0.55;;;0.50;;
6163;SDS011;3114;48.362;10.994;2023-04-02T07:31:22;2.58;;;0.60;;
6163;SDS011;3114;48.362;10.994;2023-04-02T07:33:51;2.03;;;1.33;;
6163;SDS011;3114;48.362;10.994;2023-04-02T07:36:23;1.80;;;0.80;;
6163;SDS011;3114;48.362;10.994;2023-04-02T07:38:50;2.38;;;1.50;;
6163;SDS011;3114;48.362;10.994;2023-04-02T07:41:17;1.13;;;0.80;;
6163;SDS011;3114;48.362;10.994;2023-04-02T07:43:45;2.50;;;0.90;;
6163;SDS011;3114;48.362;10.994;2023-04-02T07:46:12;1.27;;;0.40;;
6163;SDS011;3114;48.362;10.994;2023-04-02T07:48:42;0.70;;;0.70;;
6163;SDS011;3114;48.362;10.994;2023-04-02T07:51:13;1.67;;;1.05;;
6163;SDS011;3114;48.362;10.994;2023-04-02T07:53:42;2.28;;;1.52;;
6163;SDS011;3114;48.362;10.994;2023-04-02T07:56:14;1.20;;;0.70;;
6163;SDS011;3114;48.362;10.994;2023-04-02T07:58:43;2.03;;;0.60;;
6163;SDS011;3114;48.362;10.994;2023-04-02T08:01:15;0.80;;;0.70;;
6163;SDS011;3114;48.362;10.994;2023-04-02T08:03:45;1.45;;;0.55;;
6163;SDS011;3114;48.362;10.994;2023-04-02T08:06:12;1.73;;;0.85;;
6163;SDS011;3114;48.362;10.994;2023-04-02T08:08:39;2.75;;;0.95;;
6163;SDS011;3114;48.362;10.994;2023-04-02T08:11:06;1.05;;;0.55;;
6163;SDS011;3114;48.362;10.994;2023-04-02T08:13:33;2.42;;;0.90;;
6163;SDS011;3114;48.362;10.994;2023-04-02T08:16:01;2.05;;;0.60;;
6163;SDS011;3114;48.362;10.994;2023-04-02T08:18:29;2.08;;;0.80;;
6163;SDS011;3114;48.362;10.994;2023-04-02T08:20:58;1.10;;;0.88;;
6163;SDS011;3114;48.362;10.994;2023-04-02T08:23:25;2.13;;;0.93;;
6163;SDS011;3114;48.362;10.994;2023-04-02T08:25:53;1.15;;;1.05;;
6163;SDS011;3114;48.362;10.994;2023-04-02T08:28:21;4.55;;;1.90;;
6163;SDS011;3114;48.362;10.994;2023-04-02T08:30:48;1.15;;;0.60;;
6163;SDS011;3114;48.362;10.994;2023-04-02T08:33:15;2.20;;;1.27;;
6163;SDS011;3114;48.362;10.994;2023-04-02T08:35:42;1.10;;;1.10;;
6163;SDS011;3114;48.362;10.994;2023-04-02T08:38:11;1.25;;;0.77;;
6163;SDS011;3114;48.362;10.994;2023-04-02T08:40:41;1.13;;;0.75;;
6163;SDS011;3114;48.362;10.994;2023-04-02T08:43:20;3.22;;;0.80;;
6163;SDS011;3114;48.362;10.994;2023-04-02T08:45:59;1.65;;;0.98;;
6163;SDS011;3114;48.362;10.994;2023-04-02T08:48:35;1.30;;;0.75;;
6163;SDS011;3114;48.362;10.994;2023-04-02T08:51:05;1.70;;;0.77;;
6163;SDS011;3114;48.362;10.994;2023-04-02T08:53:37;0.90;;;0.60;;
6163;SDS011;3114;48.362;10.994;2023-04-02T08:56:06;0.60;;;0.57;;
6163;SDS011;3114;48.362;10.994;2023-04-02T08:58:42;0.82;;;0.55;;
6163;SDS011;3114;48.362;10.994;2023-04-02T09:01:15;0.90;;;0.65;;
6163;SDS011;3114;48.362;10.994;2023-04-02T09:03:48;0.98;;;0.47;;
6163;SDS011;3114;48.362;10.994;2023-04-02T09:06:19;0.45;;;0.43;;
6163;SDS011;3114;48.362;10.994;2023-04-02T09:08:49;0.77;;;0.55;;
6163;SDS011;3114;48.362;10.994;2023-04-02T09:11:20;0.28;;;0.20;;
6163;SDS011;3114;48.362;10.994;2023-04-02T09:13:51;0.82;;;0.50;;
6163;SDS011;3114;48.362;10.994;2023-04-02T09:16:23;3.00;;;0.60;;
6163;SDS011;3114;48.362;10.994;2023-04-02T09:19:01;1.30;;;0.60;;
6163;SDS011;3114;48.362;10.994;2023-04-02T09:21:30;0.95;;;0.80;;
6163;SDS011;3114;48.362;10.994;2023-04-02T09:24:01;0.70;;;0.70;;
6163;SDS011;3114;48.362;10.994;2023-04-02T09:26:29;1.33;;;0.90;;
6163;SDS011;3114;48.362;10.994;2023-04-02T09:28:59;2.20;;;1.20;;
6163;SDS011;3114;48.362;10.994;2023-04-02T09:31:30;1.70;;;0.88;;
6163;SDS011;3114;48.362;10.994;2023-04-02T09:34:05;1.58;;;0.90;;
6163;SDS011;3114;48.362;10.994;2023-04-02T09:36:52;0.57;;;0.57;;
6163;SDS011;3114;48.362;10.994;2023-04-02T09:39:21;0.85;;;0.65;;
6163;SDS011;3114;48.362;10.994;2023-04-02T09:41:50;2.15;;;1.08;;
6163;SDS011;3114;48.362;10.994;2023-04-02T09:44:19;0.73;;;0.32;;
6163;SDS011;3114;48.362;10.994;2023-04-02T09:46:50;0.85;;;0.50;;
6163;SDS011;3114;48.362;10.994;2023-04-02T09:49:20;1.48;;;0.55;;
6163;SDS011;3114;48.362;10.994;2023-04-02T09:52:15;0.40;;;0.35;;
6163;SDS011;3114;48.362;10.994;2023-04-02T09:54:46;1.08;;;0.40;;
6163;SDS011;3114;48.362;10.994;2023-04-02T09:57:42;0.70;;;0.40;;
6163;SDS011;3114;48.362;10.994;2023-04-02T10:00:14;1.30;;;0.47;;
6163;SDS011;3114;48.362;10.994;2023-04-02T10:02:45;0.93;;;0.68;;
6163;SDS011;3114;48.362;10.994;2023-04-02T10:05:24;0.98;;;0.80;;
6163;SDS011;3114;48.362;10.994;2023-04-02T10:07:52;1.95;;;1.38;;
6163;SDS011;3114;48.362;10.994;2023-04-02T10:10:21;3.92;;;2.42;;
6163;SDS011;3114;48.362;10.994;2023-04-02T10:12:53;3.15;;;1.55;;
6163;SDS011;3114;48.362;10.994;2023-04-02T10:15:26;2.45;;;1.05;;
6163;SDS011;3114;48.362;10.994;2023-04-02T10:18:01;3.58;;;1.40;;
6163;SDS011;3114;48.362;10.994;2023-04-02T10:20:32;2.05;;;1.45;;
6163;SDS011;3114;48.362;10.994;2023-04-02T10:23:01;4.88;;;1.90;;
6163;SDS011;3114;48.362;10.994;2023-04-02T10:25:30;3.28;;;1.48;;
6163;SDS011;3114;48.362;10.994;2023-04-02T10:28:07;4.82;;;1.75;;
6163;SDS011;3114;48.362;10.994;2023-04-02T10:30:49;1.45;;;0.93;;
6163;SDS011;3114;48.362;10.994;2023-04-02T10:33:24;2.40;;;1.83;;
6163;SDS011;3114;48.362;10.994;2023-04-02T10:35:57;1.30;;;1.02;;
6163;SDS011;3114;48.362;10.994;2023-04-02T10:38:34;0.73;;;0.73;;
6163;SDS011;3114;48.362;10.994;2023-04-02T10:41:17;1.05;;;0.90;;
6163;SDS011;3114;48.362;10.994;2023-04-02T10:43:58;0.85;;;0.55;;
6163;SDS011;3114;48.362;10.994;2023-04-02T10:46:38;1.27;;;0.40;;
6163;SDS011;3114;48.362;10.994;2023-04-02T10:49:12;0.80;;;0.73;;
6163;SDS011;3114;48.362;10.994;2023-04-02T10:51:52;1.55;;;0.77;;
6163;SDS011;3114;48.362;10.994;2023-04-02T10:54:28;1.55;;;0.63;;
6163;SDS011;3114;48.362;10.994;2023-04-02T10:57:05;0.98;;;0.70;;
6163;SDS011;3114;48.362;10.994;2023-04-02T10:59:37;1.83;;;0.65;;
6163;SDS011;3114;48.362;10.994;2023-04-02T11:02:22;0.95;;;0.65;;
6163;SDS011;3114;48.362;10.994;2023-04-02T11:04:53;0.73;;;0.73;;
6163;SDS011;3114;48.362;10.994;2023-04-02T11:07:23;0.60;;;0.60;;
6163;SDS011;3114;48.362;10.994;2023-04-02T11:09:55;0.63;;;0.50;;
6163;SDS011;3114;48.362;10.994;2023-04-02T11:12:36;2.95;;;1.08;;
6163;SDS011;3114;48.362;10.994;2023-04-02T11:15:09;1.35;;;0.40;;
6163;SDS011;3114;48.362;10.994;2023-04-02T11:17:41;1.40;;;0.50;;
6163;SDS011;3114;48.362;10.994;2023-04-02T11:23:21;1.77;;;0.90;;
6163;SDS011;3114;48.362;10.994;2023-04-02T11:26:00;0.75;;;0.65;;
6163;SDS011;3114;48.362;10.994;2023-04-02T11:29:12;1.23;;;0.70;;
6163;SDS011;3114;48.362;10.994;2023-04-02T11:31:45;0.68;;;0.65;;
6163;SDS011;3114;48.362;10.994;2023-04-02T11:34:14;0.90;;;0.50;;
6163;SDS011;3114;48.362;10.994;2023-04-02T11:36:59;1.30;;;0.80;;
6163;SDS011;3114;48.362;10.994;2023-04-02T11:39:45;1.20;;;0.70;;
6163;SDS011;3114;48.362;10.994;2023-04-02T11:42:26;1.40;;;0.60;;
6163;SDS011;3114;48.362;10.994;2023-04-02T11:45:00;1.55;;;0.50;;
6163;SDS011;3114;48.362;10.994;2023-04-02T11:47:41;0.85;;;0.70;;
6163;SDS011;3114;48.362;10.994;2023-04-02T11:50:32;0.45;;;0.40;;
6163;SDS011;3114;48.362;10.994;2023-04-02T11:53:01;1.02;;;0.50;;
6163;SDS011;3114;48.362;10.994;2023-04-02T11:55:29;0.70;;;0.50;;
6163;SDS011;3114;48.362;10.994;2023-04-02T12:07:26;0.55;;;0.52;;
6163;SDS011;3114;48.362;10.994;2023-04-02T12:10:01;0.60;;;0.60;;
6163;SDS011;3114;48.362;10.994;2023-04-02T12:12:32;0.70;;;0.70;;
6163;SDS011;3114;48.362;10.994;2023-04-02T12:15:02;0.80;;;0.68;;
6163;SDS011;3114;48.362;10.994;2023-04-02T12:17:33;0.50;;;0.50;;
6163;SDS011;3114;48.362;10.994;2023-04-02T12:20:02;0.82;;;0.63;;
6163;SDS011;3114;48.362;10.994;2023-04-02T12:22:47;1.25;;;0.88;;
6163;SDS011;3114;48.362;10.994;2023-04-02T12:25:21;2.10;;;0.63;;
6163;SDS011;3114;48.362;10.994;2023-04-02T12:28:03;1.55;;;0.60;;
6163;SDS011;3114;48.362;10.994;2023-04-02T12:30:42;0.73;;;0.60;;
6163;SDS011;3114;48.362;10.994;2023-04-02T12:33:16;0.43;;;0.43;;
6163;SDS011;3114;48.362;10.994;2023-04-02T12:35:55;1.33;;;1.00;;
6163;SDS011;3114;48.362;10.994;2023-04-02T12:38:25;1.20;;;0.88;;
6163;SDS011;3114;48.362;10.994;2023-04-02T12:40:53;0.60;;;0.60;;
6163;SDS011;3114;48.362;10.994;2023-04-02T12:43:25;1.88;;;0.50;;
6163;SDS011;3114;48.362;10.994;2023-04-02T12:45:53;0.60;;;0.60;;
6163;SDS011;3114;48.362;10.994;2023-04-02T12:48:21;1.63;;;0.40;;
6163;SDS011;3114;48.362;10.994;2023-04-02T12:50:48;1.27;;;0.80;;
6163;SDS011;3114;48.362;10.994;2023-04-02T12:53:18;1.00;;;0.90;;
6163;SDS011;3114;48.362;10.994;2023-04-02T12:55:49;0.60;;;0.60;;
6163;SDS011;3114;48.362;10.994;2023-04-02T13:00:51;0.70;;;0.70;;
6163;SDS011;3114;48.362;10.994;2023-04-02T13:03:19;0.73;;;0.40;;
6163;SDS011;3114;48.362;10.994;2023-04-02T13:05:48;1.58;;;0.60;;
6163;SDS011;3114;48.362;10.994;2023-04-02T13:08:17;1.27;;;0.80;;
6163;SDS011;3114;48.362;10.994;2023-04-02T13:10:52;0.82;;;0.70;;
6163;SDS011;3114;48.362;10.994;2023-04-02T13:13:23;0.50;;;0.50;;
6163;SDS011;3114;48.362;10.994;2023-04-02T13:16:03;1.27;;;0.85;;
6163;SDS011;3114;48.362;10.994;2023-04-02T13:18:33;1.58;;;0.70;;
6163;SDS011;3114;48.362;10.994;2023-04-02T13:21:02;0.38;;;0.38;;
6163;SDS011;3114;48.362;10.994;2023-04-02T13:23:31;0.50;;;0.30;;
6163;SDS011;3114;48.362;10.994;2023-04-02T13:26:09;0.10;;;0.10;;
6163;SDS011;3114;48.362;10.994;2023-04-02T13:28:41;0.40;;;0.40;;
6163;SDS011;3114;48.362;10.994;2023-04-02T13:31:11;0.25;;;0.20;;
6163;SDS011;3114;48.362;10.994;2023-04-02T13:33:41;0.30;;;0.30;;
6163;SDS011;3114;48.362;10.994;2023-04-02T13:36:09;0.57;;;0.40;;
6163;SDS011;3114;48.362;10.994;2023-04-02T13:38:38;0.57;;;0.50;;
6163;SDS011;3114;48.362;10.994;2023-04-02T13:41:05;0.95;;;0.70;;
6163;SDS011;3114;48.362;10.994;2023-04-02T13:43:37;0.80;;;0.80;;
6163;SDS011;3114;48.362;10.994;2023-04-02T13:46:04;0.60;;;0.60;;
6163;SDS011;3114;48.362;10.994;2023-04-02T13:48:31;0.55;;;0.55;;
6163;SDS011;3114;48.362;10.994;2023-04-02T13:50:58;0.65;;;0.40;;
6163;SDS011;3114;48.362;10.994;2023-04-02T13:53:27;1.85;;;0.80;;
6163;SDS011;3114;48.362;10.994;2023-04-02T13:55:58;1.30;;;0.68;;
6163;SDS011;3114;48.362;10.994;2023-04-02T13:58:25;0.82;;;0.63;;
6163;SDS011;3114;48.362;10.994;2023-04-02T14:00:54;1.48;;;0.90;;
6163;SDS011;3114;48.362;10.994;2023-04-02T14:03:21;0.55;;;0.55;;
6163;SDS011;3114;48.362;10.994;2023-04-02T14:05:50;0.40;;;0.40;;
6163;SDS011;3114;48.362;10.994;2023-04-02T14:08:26;0.35;;;0.35;;
6163;SDS011;3114;48.362;10.994;2023-04-02T14:11:05;1.95;;;0.40;;
6163;SDS011;3114;48.362;10.994;2023-04-02T14:13:50;1.25;;;1.00;;
6163;SDS011;3114;48.362;10.994;2023-04-02T14:16:43;0.50;;;0.50;;
6163;SDS011;3114;48.362;10.994;2023-04-02T14:19:33;0.38;;;0.38;;
6163;SDS011;3114;48.362;10.994;2023-04-02T14:22:14;1.35;;;0.40;;
6163;SDS011;3114;48.362;10.994;2023-04-02T14:24:51;0.40;;;0.30;;
6163;SDS011;3114;48.362;10.994;2023-04-02T14:27:26;0.40;;;0.40;;
6163;SDS011;3114;48.362;10.994;2023-04-02T14:30:00;2.35;;;1.20;;
6163;SDS011;3114;48.362;10.994;2023-04-02T14:32:34;0.93;;;0.80;;
6163;SDS011;3114;48.362;10.994;2023-04-02T14:35:14;0.90;;;0.90;;
6163;SDS011;3114;48.362;10.994;2023-04-02T14:37:49;2.17;;;1.42;;
6163;SDS011;3114;48.362;10.994;2023-04-02T14:40:24;1.17;;;0.85;;
6163;SDS011;3114;48.362;10.994;2023-04-02T14:42:56;1.42;;;1.00;;
6163;SDS011;3114;48.362;10.994;2023-04-02T14:45:30;1.20;;;1.10;;
6163;SDS011;3114;48.362;10.994;2023-04-02T14:48:12;1.83;;;1.50;;
6163;SDS011;3114;48.362;10.994;2023-04-02T14:50:52;2.05;;;0.90;;
6163;SDS011;3114;48.362;10.994;2023-04-02T14:53:25;1.10;;;1.00;;
6163;SDS011;3114;48.362;10.994;2023-04-02T14:55:58;0.88;;;0.88;;
6163;SDS011;3114;48.362;10.994;2023-04-02T14:58:27;1.17;;;0.90;;
6163;SDS011;3114;48.362;10.994;2023-04-02T15:00:59;1.15;;;1.08;;
6163;SDS011;3114;48.362;10.994;2023-04-02T15:03:34;1.40;;;1.30;;
6163;SDS011;3114;48.362;10.994;2023-04-02T15:06:08;1.17;;;1.10;;
6163;SDS011;3114;48.362;10.994;2023-04-02T15:08:37;1.50;;;1.40;;
6163;SDS011;3114;48.362;10.994;2023-04-02T15:11:09;1.40;;;1.30;;
6163;SDS011;3114;48.362;10.994;2023-04-02T15:13:42;1.33;;;1.15;;
6163;SDS011;3114;48.362;10.994;2023-04-02T15:16:12;1.05;;;0.95;;
6163;SDS011;3114;48.362;10.994;2023-04-02T15:18:44;1.98;;;1.50;;
6163;SDS011;3114;48.362;10.994;2023-04-02T15:21:19;2.92;;;1.75;;
6163;SDS011;3114;48.362;10.994;2023-04-02T15:24:03;2.17;;;1.92;;
6163;SDS011;3114;48.362;10.994;2023-04-02T15:26:38;2.28;;;1.60;;
6163;SDS011;3114;48.362;10.994;2023-04-02T15:29:18;1.40;;;1.17;;
6163;SDS011;3114;48.362;10.994;2023-04-02T15:31:53;1.30;;;1.20;;
6163;SDS011;3114;48.362;10.994;2023-04-02T15:34:28;2.55;;;1.33;;
6163;SDS011;3114;48.362;10.994;2023-04-02T15:37:07;1.48;;;1.13;;
6163;SDS011;3114;48.362;10.994;2023-04-02T15:39:53;0.90;;;0.90;;
6163;SDS011;3114;48.362;10.994;2023-04-02T15:42:29;0.90;;;0.80;;
6163;SDS011;3114;48.362;10.994;2023-04-02T15:45:03;1.60;;;1.40;;
6163;SDS011;3114;48.362;10.994;2023-04-02T15:47:51;1.55;;;1.40;;
6163;SDS011;3114;48.362;10.994;2023-04-02T15:50:37;2.80;;;1.85;;
6163;SDS011;3114;48.362;10.994;2023-04-02T15:53:14;1.80;;;1.70;;
6163;SDS011;3114;48.362;10.994;2023-04-02T15:55:53;2.42;;;1.25;;